createdAt,value
2022-09-01T00:01:55.451Z,62.10
2022-09-01T00:04:28.046Z,62.10
2022-09-01T00:06:56.312Z,62.10
2022-09-01T00:09:24.988Z,62.10
2022-09-01T00:11:55.681Z,62.10
2022-09-01T00:14:30.878Z,62.10
2022-09-01T00:17:00.304Z,62.10
2022-09-01T00:19:30.464Z,62.10
2022-09-01T00:21:58.267Z,62.10
2022-09-01T00:24:26.638Z,62.10
2022-09-01T00:26:54.967Z,62.10
2022-09-01T00:29:23.941Z,62.20
2022-09-01T00:31:52.463Z,62.30
2022-09-01T00:34:20.586Z,62.20
2022-09-01T00:36:49.691Z,62.30
2022-09-01T00:39:17.511Z,62.30
2022-09-01T00:41:47.171Z,62.30
2022-09-01T00:44:19.036Z,62.30
2022-09-01T00:46:55.339Z,62.30
2022-09-01T00:49:29.291Z,62.40
2022-09-01T00:52:14.380Z,62.40
2022-09-01T00:54:46.854Z,62.40
2022-09-01T00:57:16.061Z,62.40
2022-09-01T00:59:50.478Z,62.40
2022-09-01T01:02:18.299Z,62.40
2022-09-01T01:04:46.179Z,62.40
2022-09-01T01:07:16.860Z,62.40
2022-09-01T01:09:46.908Z,62.50
2022-09-01T01:12:18.307Z,62.50
2022-09-01T01:14:50.064Z,62.50
2022-09-01T01:17:18.512Z,62.50
2022-09-01T01:20:06.442Z,62.50
2022-09-01T01:23:02.395Z,62.50
2022-09-01T01:25:34.224Z,62.50
2022-09-01T01:28:08.667Z,62.50
2022-09-01T01:30:37.138Z,62.50
2022-09-01T01:33:06.372Z,62.50
2022-09-01T01:35:36.225Z,62.60
2022-09-01T01:38:08.219Z,62.60
2022-09-01T01:40:38.727Z,62.60
2022-09-01T01:43:07.312Z,62.60
2022-09-01T01:45:36.373Z,62.50
2022-09-01T01:48:08.441Z,62.60
2022-09-01T01:50:37.904Z,62.60
2022-09-01T01:53:10.895Z,62.60
2022-09-01T01:55:41.633Z,62.60
2022-09-01T01:58:12.174Z,62.60
2022-09-01T02:00:44.540Z,62.60
2022-09-01T02:03:17.170Z,62.70
2022-09-01T02:05:47.313Z,62.60
2022-09-01T02:08:21.815Z,62.70
2022-09-01T02:10:54.237Z,62.70
2022-09-01T02:13:30.836Z,62.70
2022-09-01T02:16:00.523Z,62.60
2022-09-01T02:18:34.190Z,62.70
2022-09-01T02:21:03.247Z,62.70
2022-09-01T02:23:32.581Z,62.70
2022-09-01T02:26:18.081Z,62.60
2022-09-01T02:28:54.887Z,62.70
2022-09-01T02:31:28.419Z,62.70
2022-09-01T02:33:58.638Z,62.70
2022-09-01T02:36:26.837Z,62.70
2022-09-01T02:38:56.774Z,62.60
2022-09-01T02:41:29.944Z,62.70
2022-09-01T02:44:02.092Z,62.70
2022-09-01T02:46:30.005Z,62.70
2022-09-01T02:49:00.377Z,62.70
2022-09-01T02:51:28.187Z,62.70
2022-09-01T02:53:55.963Z,62.70
2022-09-01T02:56:27.213Z,62.70
2022-09-01T02:58:56.463Z,62.80
2022-09-01T03:01:29.081Z,62.70
2022-09-01T03:03:59.789Z,62.70
2022-09-01T03:06:28.583Z,62.80
2022-09-01T03:09:00.093Z,62.80
2022-09-01T03:11:30.225Z,62.70
2022-09-01T03:13:58.295Z,62.70
2022-09-01T03:16:26.053Z,62.70
2022-09-01T03:18:54.236Z,63.50
2022-09-01T03:21:23.217Z,62.70
2022-09-01T03:23:52.576Z,62.70
2022-09-01T03:26:23.187Z,62.70
2022-09-01T03:28:53.179Z,62.70
2022-09-01T03:31:22.512Z,62.70
2022-09-01T03:33:54.373Z,62.70
2022-09-01T03:36:27.593Z,62.70
2022-09-01T03:38:56.823Z,62.70
2022-09-01T03:41:28.400Z,62.70
2022-09-01T03:43:58.772Z,62.70
2022-09-01T03:46:36.399Z,62.80
2022-09-01T03:49:07.124Z,62.80
2022-09-01T03:51:37.890Z,62.80
2022-09-01T03:54:06.497Z,62.80
2022-09-01T03:56:34.577Z,62.80
2022-09-01T03:59:03.889Z,62.80
2022-09-01T04:01:37.830Z,62.80
2022-09-01T04:04:06.564Z,62.80
2022-09-01T04:06:34.456Z,62.80
2022-09-01T04:09:03.578Z,62.80
2022-09-01T04:11:36.137Z,62.90
2022-09-01T04:14:05.252Z,63.00
2022-09-01T04:16:54.320Z,63.00
2022-09-01T04:19:26.486Z,63.00
2022-09-01T04:21:59.681Z,63.10
2022-09-01T04:24:31.772Z,63.20
2022-09-01T04:27:02.696Z,63.10
2022-09-01T04:29:33.311Z,63.10
2022-09-01T04:32:05.888Z,63.10
2022-09-01T04:34:38.130Z,63.10
2022-09-01T04:37:09.539Z,63.10
2022-09-01T04:39:39.008Z,63.10
2022-09-01T04:42:09.423Z,63.10
2022-09-01T04:44:40.081Z,63.10
2022-09-01T04:47:11.397Z,63.10
2022-09-01T04:49:39.186Z,63.10
2022-09-01T04:52:06.957Z,63.10
2022-09-01T04:54:37.295Z,63.20
2022-09-01T04:57:07.324Z,63.10
2022-09-01T04:59:39.284Z,63.70
2022-09-01T05:02:09.510Z,63.10
2022-09-01T05:04:40.177Z,63.10
2022-09-01T05:07:08.392Z,63.10
2022-09-01T05:09:39.216Z,63.10
2022-09-01T05:12:32.877Z,63.10
2022-09-01T05:15:06.391Z,63.10
2022-09-01T05:17:34.175Z,63.10
2022-09-01T05:20:01.943Z,63.10
2022-09-01T05:22:31.436Z,63.00
2022-09-01T05:25:13.044Z,63.00
2022-09-01T05:27:49.652Z,63.00
2022-09-01T05:30:20.359Z,63.00
2022-09-01T05:32:50.550Z,63.00
2022-09-01T05:35:18.835Z,63.00
2022-09-01T05:37:46.882Z,63.00
2022-09-01T05:40:16.110Z,62.90
2022-09-01T05:42:44.386Z,63.00
2022-09-01T05:45:12.676Z,63.00
2022-09-01T05:47:42.042Z,62.90
2022-09-01T05:50:14.618Z,63.00
2022-09-01T05:52:44.766Z,63.00
2022-09-01T05:55:14.693Z,62.90
2022-09-01T05:57:45.154Z,62.90
2022-09-01T06:00:14.287Z,62.90
2022-09-01T06:02:44.085Z,62.90
2022-09-01T06:05:18.877Z,62.90
2022-09-01T06:07:47.671Z,62.90
2022-09-01T06:10:16.147Z,62.90
2022-09-01T06:12:45.251Z,62.90
2022-09-01T06:15:18.465Z,62.90
2022-09-01T06:17:52.340Z,62.90
2022-09-01T06:20:20.319Z,62.80
2022-09-01T06:22:48.834Z,62.90
2022-09-01T06:25:18.445Z,62.90
2022-09-01T06:27:48.081Z,62.90
2022-09-01T06:30:23.892Z,62.90
2022-09-01T06:33:05.867Z,62.90
2022-09-01T06:35:35.020Z,62.90
2022-09-01T06:38:04.808Z,62.90
2022-09-01T06:40:42.135Z,62.90
2022-09-01T06:43:12.431Z,63.00
2022-09-01T06:45:44.410Z,63.00
2022-09-01T06:48:18.265Z,63.10
2022-09-01T06:53:35.372Z,63.10
2022-09-01T06:56:05.548Z,63.10
2022-09-01T06:58:34.925Z,63.20
2022-09-01T07:01:08.163Z,63.10
2022-09-01T07:03:39.207Z,63.20
2022-09-01T07:09:50.073Z,63.00
2022-09-01T07:12:37.884Z,62.80
2022-09-01T07:17:56.934Z,62.40
2022-09-01T07:20:29.054Z,62.20
2022-09-01T07:23:07.247Z,62.00
2022-09-01T07:26:01.237Z,61.90
2022-09-01T07:28:41.445Z,61.80
2022-09-01T07:39:52.751Z,61.00
2022-09-01T07:45:58.275Z,60.80
2022-09-01T07:49:01.176Z,60.70
2022-09-01T07:51:36.843Z,60.60
2022-09-01T07:54:07.810Z,60.50
2022-09-01T07:56:40.106Z,60.50
2022-09-01T07:59:15.383Z,60.40
2022-09-01T08:01:55.651Z,60.30
2022-09-01T08:04:23.725Z,60.30
2022-09-01T08:06:52.048Z,60.20
2022-09-01T08:09:37.408Z,60.20
2022-09-01T08:12:07.581Z,60.10
2022-09-01T08:14:39.312Z,60.10
2022-09-01T08:19:58.304Z,60.00
2022-09-01T08:22:46.024Z,60.00
2022-09-01T08:25:32.161Z,60.00
2022-09-01T08:28:00.705Z,60.00
2022-09-01T08:30:29.923Z,60.00
2022-09-01T08:32:58.189Z,60.00
2022-09-01T08:35:26.935Z,60.00
2022-09-01T08:37:55.202Z,60.00
2022-09-01T08:40:24.390Z,60.00
2022-09-01T08:43:05.925Z,60.10
2022-09-01T08:45:38.650Z,60.10
2022-09-01T08:51:15.695Z,60.10
2022-09-01T08:54:04.129Z,60.10
2022-09-01T08:56:32.869Z,60.10
2022-09-01T08:59:03.134Z,60.20
2022-09-01T09:01:55.259Z,60.20
2022-09-01T09:04:35.839Z,60.10
2022-09-01T09:07:13.030Z,60.20
2022-09-01T09:09:53.087Z,60.10
2022-09-01T09:12:51.925Z,60.10
2022-09-01T09:15:31.257Z,60.10
2022-09-01T09:18:17.049Z,60.20
2022-09-01T09:20:55.645Z,60.10
2022-09-01T09:23:30.520Z,60.20
2022-09-01T09:25:58.295Z,61.00
2022-09-01T09:28:26.084Z,60.30
2022-09-01T09:31:29.033Z,60.30
2022-09-01T09:33:57.921Z,60.30
2022-09-01T09:36:33.808Z,60.30
2022-09-01T09:39:07.994Z,60.30
2022-09-01T09:41:36.234Z,60.40
2022-09-01T09:44:09.198Z,60.30
2022-09-01T09:46:43.717Z,60.40
2022-09-01T09:49:19.258Z,60.30
2022-09-01T09:51:52.246Z,60.30
2022-09-01T09:54:24.181Z,60.30
2022-09-01T09:57:06.783Z,60.70
2022-09-01T09:59:57.873Z,60.20
2022-09-01T10:02:32.583Z,60.10
2022-09-01T10:05:02.840Z,60.10
2022-09-01T10:07:33.887Z,60.10
2022-09-01T10:10:04.780Z,60.10
2022-09-01T10:12:33.802Z,60.10
2022-09-01T10:15:07.093Z,60.10
2022-09-01T10:17:43.952Z,60.00
2022-09-01T10:20:17.463Z,60.00
2022-09-01T10:22:48.598Z,60.90
2022-09-01T10:25:21.675Z,60.10
2022-09-01T10:27:54.985Z,60.10
2022-09-01T10:30:23.724Z,60.10
2022-09-01T10:32:58.881Z,60.10
2022-09-01T10:35:32.222Z,60.10
2022-09-01T10:38:03.408Z,60.20
2022-09-01T10:40:43.934Z,60.20
2022-09-01T10:43:28.416Z,60.30
2022-09-01T10:46:05.143Z,60.30
2022-09-01T10:48:46.262Z,60.30
2022-09-01T10:51:51.390Z,60.40
2022-09-01T10:54:55.556Z,60.40
2022-09-01T10:57:42.777Z,60.40
2022-09-01T11:04:04.168Z,60.60
2022-09-01T11:07:16.837Z,60.50
2022-09-01T11:09:48.029Z,60.60
2022-09-01T11:12:39.331Z,60.60
2022-09-01T11:15:35.572Z,60.60
2022-09-01T11:18:08.767Z,60.60
2022-09-01T11:20:40.478Z,60.60
2022-09-01T11:23:14.893Z,60.50
2022-09-01T11:25:45.821Z,60.60
2022-09-01T11:28:44.634Z,60.70
2022-09-01T11:31:21.258Z,60.60
2022-09-01T11:34:00.666Z,60.60
2022-09-01T11:36:35.621Z,60.60
2022-09-01T11:39:12.764Z,60.60
2022-09-01T11:41:59.617Z,60.60
2022-09-01T11:44:36.465Z,60.50
2022-09-01T11:47:13.517Z,60.50
2022-09-01T11:49:50.371Z,60.50
2022-09-01T11:52:21.458Z,60.40
2022-09-01T11:54:50.921Z,60.40
2022-09-01T11:57:21.631Z,60.40
2022-09-01T11:59:49.512Z,60.40
2022-09-01T12:02:23.006Z,60.30
2022-09-01T12:04:51.670Z,60.30
2022-09-01T12:07:38.850Z,60.20
2022-09-01T12:10:16.273Z,60.20
2022-09-01T12:12:44.032Z,60.20
2022-09-01T12:15:20.366Z,60.20
2022-09-01T12:17:48.231Z,60.20
2022-09-01T12:20:28.927Z,60.10
2022-09-01T12:23:00.989Z,60.10
2022-09-01T12:25:31.187Z,60.10
2022-09-01T12:28:01.003Z,60.10
2022-09-01T12:30:29.371Z,60.10
2022-09-01T12:35:46.256Z,60.00
2022-09-01T12:38:30.779Z,60.00
2022-09-01T12:40:59.055Z,60.00
2022-09-01T12:43:33.963Z,59.90
2022-09-01T12:46:04.605Z,59.80
2022-09-01T12:48:34.939Z,59.80
2022-09-01T12:51:06.900Z,59.80
2022-09-01T12:53:36.880Z,59.70
2022-09-01T12:56:27.764Z,59.70
2022-09-01T12:59:11.948Z,59.60
2022-09-01T13:01:44.070Z,59.50
2022-09-01T13:04:25.063Z,59.50
2022-09-01T13:06:53.529Z,59.60
2022-09-01T13:09:22.729Z,59.40
2022-09-01T13:12:07.440Z,59.50
2022-09-01T13:14:35.618Z,59.50
2022-09-01T13:17:03.376Z,59.50
2022-09-01T13:19:31.096Z,59.50
2022-09-01T13:21:59.003Z,59.40
2022-09-01T13:24:31.475Z,59.40
2022-09-01T13:29:47.804Z,59.50
2022-09-01T13:32:18.736Z,59.50
2022-09-01T13:34:48.473Z,59.60
2022-09-01T13:37:18.450Z,59.60
2022-09-01T13:39:48.378Z,59.60
2022-09-01T13:42:16.663Z,59.50
2022-09-01T13:44:44.590Z,59.50
2022-09-01T13:47:28.967Z,59.50
2022-09-01T13:50:14.509Z,59.40
2022-09-01T13:52:45.209Z,59.40
2022-09-01T13:55:16.403Z,59.30
2022-09-01T13:57:44.159Z,59.30
2022-09-01T14:00:15.590Z,59.20
2022-09-01T14:02:48.981Z,59.20
2022-09-01T14:05:17.678Z,59.20
2022-09-01T14:07:45.513Z,59.10
2022-09-01T14:10:14.873Z,59.10
2022-09-01T14:12:43.441Z,59.00
2022-09-01T14:15:15.922Z,59.00
2022-09-01T14:17:45.592Z,59.00
2022-09-01T14:20:15.765Z,58.90
2022-09-01T14:22:43.516Z,58.80
2022-09-01T14:25:12.095Z,58.80
2022-09-01T14:27:42.706Z,58.70
2022-09-01T14:30:15.791Z,58.70
2022-09-01T14:32:43.703Z,58.70
2022-09-01T14:35:11.880Z,58.70
2022-09-01T14:37:40.079Z,58.70
2022-09-01T14:40:10.745Z,58.70
2022-09-01T14:42:47.517Z,58.70
2022-09-01T14:45:18.364Z,58.70
2022-09-01T14:47:46.365Z,58.70
2022-09-01T14:50:17.140Z,58.70
2022-09-01T14:52:48.170Z,58.70
2022-09-01T14:55:16.957Z,58.60
2022-09-01T14:57:46.247Z,58.60
2022-09-01T15:00:14.760Z,58.60
2022-09-01T15:02:44.233Z,58.70
2022-09-01T15:05:13.610Z,58.60
2022-09-01T15:07:42.223Z,58.60
2022-09-01T15:10:15.781Z,58.60
2022-09-01T15:12:43.924Z,58.60
2022-09-01T15:15:13.100Z,58.60
2022-09-01T15:17:43.353Z,58.50
2022-09-01T15:20:31.103Z,58.60
2022-09-01T15:22:58.848Z,58.50
2022-09-01T15:25:26.993Z,58.50
2022-09-01T15:27:54.886Z,58.50
2022-09-01T15:30:24.055Z,58.50
2022-09-01T15:32:53.969Z,58.50
2022-09-01T15:35:22.534Z,58.50
2022-09-01T15:37:51.939Z,58.40
2022-09-01T15:40:20.643Z,58.40
2022-09-01T15:42:48.438Z,58.40
2022-09-01T15:45:18.329Z,58.40
2022-09-01T15:47:48.204Z,58.40
2022-09-01T15:50:20.976Z,58.40
2022-09-01T15:52:52.545Z,58.40
2022-09-01T15:55:22.926Z,58.40
2022-09-01T15:57:50.842Z,58.40
2022-09-01T16:00:19.365Z,58.40
2022-09-01T16:02:48.461Z,58.40
2022-09-01T16:05:17.713Z,58.40
2022-09-01T16:07:45.476Z,58.40
2022-09-01T16:10:14.050Z,58.40
2022-09-01T16:12:44.070Z,58.40
2022-09-01T16:15:13.784Z,58.40
2022-09-01T16:17:59.436Z,58.30
2022-09-01T16:20:32.345Z,58.30
2022-09-01T16:23:12.963Z,58.30
2022-09-01T16:25:41.488Z,58.20
2022-09-01T16:28:21.909Z,58.10
2022-09-01T16:30:52.483Z,58.10
2022-09-01T16:33:21.555Z,58.00
2022-09-01T16:35:59.416Z,57.90
2022-09-01T16:38:36.340Z,57.90
2022-09-01T16:41:11.513Z,57.80
2022-09-01T16:43:47.696Z,57.70
2022-09-01T16:46:26.748Z,57.70
2022-09-01T16:49:01.778Z,57.60
2022-09-01T16:51:34.772Z,57.50
2022-09-01T16:54:14.612Z,57.30
2022-09-01T16:56:53.941Z,57.10
2022-09-01T16:59:31.401Z,56.80
2022-09-01T17:02:09.677Z,56.50
2022-09-01T17:04:46.694Z,56.20
2022-09-01T17:07:17.044Z,55.80
2022-09-01T17:09:46.534Z,55.50
2022-09-01T17:12:29.949Z,55.50
2022-09-01T17:15:03.997Z,55.40
2022-09-01T17:17:37.962Z,55.30
2022-09-01T17:20:08.628Z,55.30
2022-09-01T17:22:38.473Z,55.90
2022-09-01T17:25:09.888Z,55.40
2022-09-01T17:27:48.057Z,55.40
2022-09-01T17:30:17.066Z,55.40
2022-09-01T17:33:17.436Z,55.50
2022-09-01T17:35:59.954Z,55.60
2022-09-01T17:38:33.319Z,55.60
2022-09-01T17:41:14.191Z,55.70
2022-09-01T17:43:53.896Z,55.70
2022-09-01T17:46:30.994Z,55.80
2022-09-01T17:49:09.082Z,55.80
2022-09-01T17:51:43.964Z,55.90
2022-09-01T17:54:21.211Z,55.90
2022-09-01T17:56:53.773Z,55.90
2022-09-01T17:59:31.785Z,56.00
2022-09-01T18:02:18.528Z,56.00
2022-09-01T18:04:59.847Z,56.10
2022-09-01T18:07:39.483Z,56.10
2022-09-01T18:10:14.070Z,56.10
2022-09-01T18:12:44.621Z,56.20
2022-09-01T18:15:15.575Z,56.20
2022-09-01T18:17:47.018Z,56.30
2022-09-01T18:20:21.915Z,56.30
2022-09-01T18:22:57.273Z,56.30
2022-09-01T18:25:33.120Z,56.40
2022-09-01T18:28:00.881Z,56.40
2022-09-01T18:30:52.733Z,56.50
2022-09-01T18:33:27.340Z,56.60
2022-09-01T18:36:03.897Z,56.60
2022-09-01T18:38:43.871Z,56.60
2022-09-01T18:41:34.905Z,56.80
2022-09-01T18:44:13.221Z,56.90
2022-09-01T18:46:49.511Z,57.00
2022-09-01T18:49:29.217Z,57.30
2022-09-01T18:52:08.937Z,57.60
2022-09-01T18:54:42.366Z,57.80
2022-09-01T18:57:18.192Z,58.00
2022-09-01T19:00:01.173Z,58.20
2022-09-01T19:02:57.298Z,58.40
2022-09-01T19:05:33.597Z,58.50
2022-09-01T19:08:11.208Z,58.60
2022-09-01T19:10:45.852Z,58.70
2022-09-01T19:13:35.233Z,58.50
2022-09-01T19:16:13.790Z,58.40
2022-09-01T19:18:45.615Z,58.40
2022-09-01T19:21:21.890Z,58.40
2022-09-01T19:23:55.394Z,58.50
2022-09-01T19:26:25.906Z,58.60
2022-09-01T19:28:56.241Z,58.70
2022-09-01T19:31:27.684Z,58.70
2022-09-01T19:33:57.578Z,58.80
2022-09-01T19:36:32.323Z,58.80
2022-09-01T19:39:00.259Z,58.90
2022-09-01T19:41:33.761Z,59.00
2022-09-01T19:44:09.035Z,59.10
2022-09-01T19:46:42.185Z,59.20
2022-09-01T19:49:23.124Z,59.20
2022-09-01T19:51:58.381Z,59.30
2022-09-01T19:54:35.365Z,59.40
2022-09-01T19:57:11.329Z,59.40
2022-09-01T19:59:48.325Z,59.50
2022-09-01T20:02:25.777Z,59.60
2022-09-01T20:05:00.838Z,59.60
2022-09-01T20:07:34.333Z,59.70
2022-09-01T20:10:23.093Z,59.70
2022-09-01T20:13:03.215Z,59.80
2022-09-01T20:15:35.590Z,59.80
2022-09-01T20:18:06.643Z,59.90
2022-09-01T20:20:39.967Z,59.80
2022-09-01T20:23:16.829Z,59.90
2022-09-01T20:25:49.487Z,59.90
2022-09-01T20:28:30.216Z,59.90
2022-09-01T20:31:03.040Z,59.90
2022-09-01T20:33:37.205Z,59.90
2022-09-01T20:36:09.596Z,59.90
2022-09-01T20:39:07.650Z,60.00
2022-09-01T20:41:42.767Z,60.00
2022-09-01T20:44:20.468Z,60.00
2022-09-01T20:46:52.455Z,60.00
2022-09-01T20:49:20.158Z,60.00
2022-09-01T20:51:54.111Z,60.00
2022-09-01T20:54:32.741Z,60.00
2022-09-01T20:57:10.016Z,60.00
2022-09-01T20:59:46.066Z,60.00
2022-09-01T21:02:29.130Z,60.10
2022-09-01T21:05:02.957Z,60.10
2022-09-01T21:07:36.748Z,60.00
2022-09-01T21:10:12.627Z,60.10
2022-09-01T21:12:50.921Z,60.10
2022-09-01T21:15:33.743Z,60.10
2022-09-01T21:18:18.351Z,61.00
2022-09-01T21:20:57.637Z,60.10
2022-09-01T21:23:26.244Z,60.10
2022-09-01T21:25:54.110Z,60.20
2022-09-01T21:28:26.257Z,60.20
2022-09-01T21:30:57.667Z,60.20
2022-09-01T21:33:28.092Z,60.20
2022-09-01T21:35:56.345Z,60.30
2022-09-01T21:38:24.147Z,60.30
2022-09-01T21:40:53.384Z,60.30
2022-09-01T21:43:24.436Z,60.30
2022-09-01T21:45:52.374Z,60.30
2022-09-01T21:48:21.669Z,60.40
2022-09-01T21:50:50.153Z,60.30
2022-09-01T21:53:18.112Z,60.40
2022-09-01T21:55:46.335Z,60.40
2022-09-01T21:58:14.295Z,60.40
2022-09-01T22:00:43.281Z,60.40
2022-09-01T22:03:12.279Z,60.40
2022-09-01T22:05:44.690Z,60.40
2022-09-01T22:08:16.664Z,60.40
2022-09-01T22:10:45.980Z,60.40
2022-09-01T22:13:15.691Z,60.40
2022-09-01T22:15:45.493Z,60.50
2022-09-01T22:18:14.189Z,60.50
2022-09-01T22:20:44.265Z,60.50
2022-09-01T22:23:12.959Z,60.40
2022-09-01T22:25:44.070Z,60.40
2022-09-01T22:28:12.156Z,60.40
2022-09-01T22:30:44.958Z,60.40
2022-09-01T22:33:12.782Z,60.40
2022-09-01T22:35:43.640Z,60.40
2022-09-01T22:38:11.768Z,60.50
2022-09-01T22:40:45.018Z,60.40
2022-09-01T22:43:16.546Z,60.50
2022-09-01T22:45:44.791Z,60.50
2022-09-01T22:48:12.894Z,61.30
2022-09-01T22:50:41.752Z,60.50
2022-09-01T22:53:12.305Z,60.50
2022-09-01T22:55:42.029Z,60.50
2022-09-01T22:58:11.508Z,60.50
2022-09-01T23:00:44.826Z,60.50
2022-09-01T23:03:14.765Z,60.50
2022-09-01T23:05:43.483Z,60.50
2022-09-01T23:08:13.058Z,60.50
2022-09-01T23:10:40.876Z,60.50
2022-09-01T23:13:08.927Z,60.50
2022-09-01T23:15:36.684Z,60.50
2022-09-01T23:18:04.595Z,60.50
2022-09-01T23:20:32.381Z,60.50
2022-09-01T23:23:00.134Z,60.50
2022-09-01T23:25:29.257Z,60.50
2022-09-01T23:27:57.584Z,60.50
2022-09-01T23:30:25.281Z,60.50
2022-09-01T23:32:53.197Z,60.50
2022-09-01T23:35:21.104Z,60.60
2022-09-01T23:37:48.820Z,60.50
2022-09-01T23:40:16.562Z,60.50
2022-09-01T23:42:45.719Z,61.40
2022-09-01T23:45:13.964Z,60.60
2022-09-01T23:47:41.710Z,60.50
2022-09-01T23:50:10.300Z,60.50
2022-09-01T23:52:38.043Z,60.60
2022-09-01T23:55:07.623Z,60.60
2022-09-01T23:57:35.541Z,60.60
